createdAt,value
2018-06-17T00:00:35.537Z,19.39
2018-06-17T00:03:05.388Z,19.72
2018-06-17T00:05:35.789Z,19.31
2018-06-17T00:08:06.759Z,18.87
2018-06-17T00:10:36.863Z,19.23
2018-06-17T00:13:07.072Z,19.57
2018-06-17T00:15:36.825Z,19.53
2018-06-17T00:18:06.505Z,19.55
2018-06-17T00:20:37.144Z,18.96
2018-06-17T00:23:06.847Z,19.19
2018-06-17T00:25:37.027Z,19.23
2018-06-17T00:28:06.768Z,19.51
2018-06-17T00:30:36.595Z,19.55
2018-06-17T00:33:06.151Z,19.76
2018-06-17T00:35:36.685Z,19.89
2018-06-17T00:38:06.617Z,19.29
2018-06-17T00:40:36.467Z,19.07
2018-06-17T00:43:07.468Z,19.10
2018-06-17T00:45:37.226Z,19.07
2018-06-17T00:48:06.740Z,19.00
2018-06-17T00:50:40.927Z,18.97
2018-06-17T00:53:14.710Z,19.13
2018-06-17T00:55:44.862Z,18.90
2018-06-17T00:58:15.348Z,18.83
2018-06-17T01:00:45.862Z,19.05
2018-06-17T01:03:16.186Z,19.26
2018-06-17T01:05:46.988Z,19.19
2018-06-17T01:08:17.740Z,18.95
2018-06-17T01:10:48.616Z,19.06
2018-06-17T01:13:19.853Z,19.07
2018-06-17T01:15:49.654Z,19.05
2018-06-17T01:18:19.478Z,19.39
2018-06-17T01:20:50.707Z,19.06
2018-06-17T01:23:21.481Z,18.85
2018-06-17T01:25:51.381Z,18.80
2018-06-17T01:28:21.178Z,18.53
2018-06-17T01:33:30.453Z,18.68
2018-06-17T01:36:00.300Z,18.65
2018-06-17T01:38:30.680Z,18.53
2018-06-17T01:41:01.509Z,18.48
2018-06-17T01:43:33.359Z,18.52
2018-06-17T01:46:03.961Z,18.31
2018-06-17T01:48:38.208Z,18.27
2018-06-17T01:51:09.715Z,18.40
2018-06-17T01:53:39.561Z,18.52
2018-06-17T01:56:10.242Z,18.51
2018-06-17T01:58:44.266Z,18.49
2018-06-17T02:01:14.233Z,18.61
2018-06-17T02:03:49.786Z,18.69
2018-06-17T02:06:24.865Z,18.48
2018-06-17T02:09:00.069Z,18.41
2018-06-17T02:11:36.006Z,18.54
2018-06-17T02:14:11.823Z,18.39
2018-06-17T02:16:43.158Z,18.59
2018-06-17T02:19:14.947Z,18.69
2018-06-17T02:21:47.023Z,18.71
2018-06-17T02:24:17.427Z,18.50
2018-06-17T02:26:48.114Z,18.39
2018-06-17T02:29:19.840Z,18.44
2018-06-17T02:31:49.800Z,18.18
2018-06-17T02:34:19.597Z,18.21
2018-06-17T02:36:49.109Z,18.45
2018-06-17T02:39:18.700Z,18.43
2018-06-17T02:44:26.584Z,18.36
2018-06-17T02:47:02.581Z,18.18
2018-06-17T02:49:35.987Z,18.37
2018-06-17T02:52:12.654Z,18.61
2018-06-17T02:54:48.635Z,18.52
2018-06-17T02:57:20.345Z,18.43
2018-06-17T02:59:50.306Z,18.47
2018-06-17T03:02:20.165Z,18.48
2018-06-17T03:04:50.006Z,18.31
2018-06-17T03:07:20.280Z,18.35
2018-06-17T03:09:50.220Z,18.33
2018-06-17T03:12:20.309Z,18.33
2018-06-17T03:14:53.420Z,18.24
2018-06-17T03:17:23.393Z,18.35
2018-06-17T03:19:53.268Z,18.58
2018-06-17T03:22:23.973Z,18.52
2018-06-17T03:24:58.348Z,18.35
2018-06-17T03:27:33.253Z,18.32
2018-06-17T03:30:09.773Z,18.48
2018-06-17T03:32:44.637Z,18.24
2018-06-17T03:35:20.361Z,17.99
2018-06-17T03:37:50.627Z,18.26
2018-06-17T03:40:21.353Z,18.75
2018-06-17T03:42:52.955Z,19.00
2018-06-17T03:45:22.770Z,18.93
2018-06-17T03:47:53.581Z,18.95
2018-06-17T03:50:23.296Z,18.94
2018-06-17T03:52:55.755Z,18.72
2018-06-17T03:55:25.927Z,18.98
2018-06-17T03:57:55.740Z,19.14
2018-06-17T04:00:25.567Z,19.54
2018-06-17T04:02:56.266Z,19.87
2018-06-17T04:05:29.913Z,20.04
2018-06-17T04:08:00.936Z,19.88
2018-06-17T04:10:30.350Z,19.81
2018-06-17T04:13:00.858Z,19.70
2018-06-17T04:15:30.560Z,19.90
2018-06-17T04:18:00.240Z,20.09
2018-06-17T04:20:30.040Z,20.03
2018-06-17T04:22:59.881Z,20.22
2018-06-17T04:25:29.646Z,20.50
2018-06-17T04:27:59.425Z,20.71
2018-06-17T04:30:34.849Z,20.89
2018-06-17T04:33:04.541Z,21.10
2018-06-17T04:35:34.233Z,21.10
2018-06-17T04:38:04.293Z,21.02
2018-06-17T04:40:34.060Z,21.42
2018-06-17T04:43:03.774Z,21.33
2018-06-17T04:45:33.830Z,21.57
2018-06-17T04:48:03.546Z,21.55
2018-06-17T04:50:33.413Z,21.73
2018-06-17T04:53:03.281Z,21.68
2018-06-17T04:55:32.989Z,21.61
2018-06-17T04:58:02.920Z,22.05
2018-06-17T05:00:35.582Z,22.04
2018-06-17T05:03:05.467Z,22.01
2018-06-17T05:05:35.305Z,22.21
2018-06-17T05:08:05.140Z,22.23
2018-06-17T05:10:34.840Z,22.41
2018-06-17T05:13:04.647Z,22.24
2018-06-17T05:15:34.413Z,22.22
2018-06-17T05:18:04.197Z,22.55
2018-06-17T05:23:09.749Z,22.45
2018-06-17T05:25:39.430Z,22.73
2018-06-17T05:28:09.115Z,22.92
2018-06-17T05:35:51.196Z,22.96
2018-06-17T05:38:21.592Z,23.18
2018-06-17T05:40:51.394Z,23.25
2018-06-17T05:43:21.449Z,23.46
2018-06-17T05:45:51.272Z,23.37
2018-06-17T05:48:20.943Z,23.40
2018-06-17T05:50:50.904Z,23.54
2018-06-17T05:53:29.936Z,23.57
2018-06-17T05:55:59.805Z,23.55
2018-06-17T05:58:29.595Z,23.69
2018-06-17T06:01:01.316Z,23.65
2018-06-17T06:03:31.736Z,23.61
2018-06-17T06:06:02.326Z,23.64
2018-06-17T06:08:32.013Z,23.86
2018-06-17T06:11:01.447Z,23.93
2018-06-17T06:13:31.835Z,24.02
2018-06-17T06:16:01.645Z,24.04
2018-06-17T06:18:31.594Z,23.88
2018-06-17T06:21:01.257Z,24.00
2018-06-17T06:26:06.553Z,24.33
2018-06-17T06:28:36.423Z,24.29
2018-06-17T06:31:06.501Z,24.51
2018-06-17T06:33:37.608Z,24.54
2018-06-17T06:36:15.425Z,24.78
2018-06-17T06:38:45.969Z,24.72
2018-06-17T06:41:16.662Z,25.06
2018-06-17T06:43:46.705Z,25.19
2018-06-17T06:46:16.557Z,25.06
2018-06-17T06:48:46.521Z,25.30
2018-06-17T06:51:17.161Z,25.49
2018-06-17T06:53:47.627Z,25.60
2018-06-17T06:56:17.729Z,25.69
2018-06-17T06:58:49.189Z,25.80
2018-06-17T07:01:30.164Z,26.02
2018-06-17T07:05:08.362Z,25.91
2018-06-17T07:07:43.313Z,25.95
2018-06-17T07:10:24.896Z,26.02
2018-06-17T07:12:54.847Z,26.56
2018-06-17T07:15:37.131Z,26.74
2018-06-17T07:18:18.204Z,26.72
2018-06-17T07:20:48.037Z,26.63
2018-06-17T07:23:17.714Z,27.05
2018-06-17T07:29:01.940Z,27.10
2018-06-17T07:31:31.644Z,26.09
2018-06-17T07:34:01.792Z,26.64
2018-06-17T07:36:31.209Z,27.04
2018-06-17T07:39:01.922Z,27.20
2018-06-17T07:41:31.378Z,27.38
2018-06-17T07:44:01.020Z,27.48
2018-06-17T07:46:30.849Z,27.50
2018-06-17T07:49:38.087Z,27.52
2018-06-17T07:52:19.442Z,27.41
2018-06-17T07:54:49.980Z,27.59
2018-06-17T07:57:21.729Z,27.70
2018-06-17T07:59:51.266Z,27.62
2018-06-17T08:02:20.772Z,27.93
2018-06-17T08:04:50.432Z,28.53
2018-06-17T08:07:19.940Z,28.57
2018-06-17T08:09:50.219Z,28.70
2018-06-17T08:12:19.765Z,28.96
2018-06-17T08:14:49.265Z,29.20
2018-06-17T08:17:18.672Z,29.40
2018-06-17T08:19:48.209Z,29.03
2018-06-17T08:22:17.993Z,29.20
2018-06-17T08:24:47.486Z,28.91
2018-06-17T08:27:16.915Z,28.73
2018-06-17T08:29:46.616Z,29.09
2018-06-17T08:32:16.121Z,29.21
2018-06-17T08:34:45.262Z,29.17
2018-06-17T08:37:14.607Z,29.37
2018-06-17T08:39:44.214Z,29.74
2018-06-17T08:42:13.894Z,30.14
2018-06-17T08:44:43.868Z,30.00
2018-06-17T08:47:13.597Z,29.77
2018-06-17T08:49:43.330Z,30.26
2018-06-17T08:52:12.785Z,30.48
2018-06-17T08:54:42.660Z,30.37
2018-06-17T08:57:12.217Z,30.30
2018-06-17T08:59:41.797Z,29.98
2018-06-17T09:02:11.531Z,30.09
2018-06-17T09:04:41.305Z,30.22
2018-06-17T09:07:12.157Z,29.45
2018-06-17T09:09:41.927Z,29.58
2018-06-17T09:12:11.522Z,30.09
2018-06-17T09:14:41.157Z,29.69
2018-06-17T09:17:10.581Z,29.69
2018-06-17T09:19:40.594Z,30.63
2018-06-17T09:22:10.133Z,30.45
2018-06-17T09:24:39.787Z,30.57
2018-06-17T09:27:09.575Z,30.50
2018-06-17T09:32:14.523Z,30.57
2018-06-17T09:34:44.957Z,30.65
2018-06-17T09:37:14.542Z,30.96
2018-06-17T09:39:44.137Z,31.35
2018-06-17T09:42:13.778Z,31.42
2018-06-17T09:44:44.294Z,31.38
2018-06-17T09:47:14.287Z,31.28
2018-06-17T09:49:44.111Z,31.48
2018-06-17T09:52:13.723Z,31.74
2018-06-17T09:54:43.253Z,32.15
2018-06-17T09:57:13.638Z,32.14
2018-06-17T09:59:43.306Z,31.98
2018-06-17T10:02:13.094Z,31.76
2018-06-17T10:04:42.987Z,31.36
2018-06-17T10:07:12.768Z,31.67
2018-06-17T10:09:51.041Z,32.23
2018-06-17T10:12:20.384Z,32.41
2018-06-17T10:14:50.376Z,32.25
2018-06-17T10:17:20.205Z,32.67
2018-06-17T10:19:50.378Z,32.58
2018-06-17T10:22:20.214Z,32.16
2018-06-17T10:24:49.980Z,31.88
2018-06-17T10:27:19.687Z,32.00
2018-06-17T10:29:49.684Z,31.93
2018-06-17T10:32:25.691Z,31.77
2018-06-17T10:34:55.476Z,31.78
2018-06-17T10:37:25.310Z,31.94
2018-06-17T10:39:54.948Z,31.64
2018-06-17T10:42:24.547Z,31.90
2018-06-17T10:44:54.400Z,31.60
2018-06-17T10:47:24.922Z,31.83
2018-06-17T10:49:54.476Z,31.74
2018-06-17T10:52:23.909Z,31.53
2018-06-17T10:54:53.276Z,31.28
2018-06-17T10:57:22.763Z,31.19
2018-06-17T10:59:52.349Z,31.01
2018-06-17T11:02:22.029Z,30.99
2018-06-17T11:04:51.744Z,31.18
2018-06-17T11:07:21.599Z,31.52
2018-06-17T11:09:51.298Z,31.66
2018-06-17T11:12:20.919Z,31.94
2018-06-17T11:14:50.561Z,31.77
2018-06-17T11:17:20.220Z,31.76
2018-06-17T11:19:49.875Z,32.08
2018-06-17T11:22:19.526Z,31.98
2018-06-17T11:24:49.136Z,31.83
2018-06-17T11:27:18.464Z,32.06
2018-06-17T11:29:47.924Z,32.41
2018-06-17T11:32:17.548Z,33.27
2018-06-17T11:37:29.826Z,33.18
2018-06-17T11:39:59.428Z,33.04
2018-06-17T11:42:29.996Z,32.81
2018-06-17T11:45:00.051Z,32.10
2018-06-17T11:47:29.690Z,31.18
2018-06-17T11:50:00.325Z,30.82
2018-06-17T11:52:30.273Z,31.11
2018-06-17T11:54:59.943Z,31.33
2018-06-17T11:57:29.732Z,31.33
2018-06-17T11:59:59.516Z,30.53
2018-06-17T12:02:29.192Z,30.41
2018-06-17T12:04:58.790Z,30.47
2018-06-17T12:07:28.535Z,30.38
2018-06-17T12:09:58.283Z,30.39
2018-06-17T12:12:31.126Z,30.15
2018-06-17T12:15:00.967Z,30.21
2018-06-17T12:17:30.565Z,30.30
2018-06-17T12:20:00.086Z,30.00
2018-06-17T12:22:29.799Z,30.00
2018-06-17T12:24:59.614Z,29.94
2018-06-17T12:27:29.408Z,29.82
2018-06-17T12:29:59.348Z,29.71
2018-06-17T12:32:28.992Z,29.56
2018-06-17T12:34:58.759Z,29.40
2018-06-17T12:37:28.497Z,29.36
2018-06-17T12:39:59.048Z,29.22
2018-06-17T12:42:35.516Z,29.24
2018-06-17T12:45:05.390Z,29.24
2018-06-17T12:47:35.256Z,29.28
2018-06-17T12:52:40.074Z,29.27
2018-06-17T12:55:16.233Z,29.17
2018-06-17T12:57:45.652Z,29.08
2018-06-17T13:00:15.090Z,29.16
2018-06-17T13:02:44.796Z,29.07
2018-06-17T13:05:14.424Z,28.97
2018-06-17T13:07:44.013Z,28.91
2018-06-17T13:10:13.924Z,28.86
2018-06-17T13:12:43.864Z,28.89
2018-06-17T13:15:14.148Z,29.02
2018-06-17T13:17:43.802Z,28.95
2018-06-17T13:20:13.747Z,28.59
2018-06-17T13:22:43.942Z,28.59
2018-06-17T13:25:13.382Z,28.94
2018-06-17T13:27:43.913Z,29.23
2018-06-17T13:30:13.588Z,29.49
2018-06-17T13:32:43.654Z,29.72
2018-06-17T13:35:15.011Z,29.77
2018-06-17T13:37:44.806Z,29.63
2018-06-17T13:40:14.480Z,29.68
2018-06-17T13:42:44.206Z,29.64
2018-06-17T13:45:13.901Z,29.74
2018-06-17T13:47:43.536Z,29.75
2018-06-17T13:50:13.285Z,29.65
2018-06-17T13:52:42.922Z,29.88
2018-06-17T13:55:13.553Z,30.03
2018-06-17T13:57:43.219Z,30.11
2018-06-17T14:00:13.036Z,30.21
2018-06-17T14:02:43.284Z,30.14
2018-06-17T14:05:13.039Z,30.29
2018-06-17T14:07:42.689Z,30.22
2018-06-17T14:10:12.479Z,30.16
2018-06-17T14:12:42.179Z,30.26
2018-06-17T14:15:12.332Z,30.21
2018-06-17T14:17:41.912Z,30.22
2018-06-17T14:20:11.510Z,30.18
2018-06-17T14:22:41.533Z,29.78
2018-06-17T14:25:11.264Z,29.71
2018-06-17T14:27:40.913Z,29.86
2018-06-17T14:30:11.293Z,29.73
2018-06-17T14:32:40.879Z,29.95
2018-06-17T14:35:10.236Z,29.90
2018-06-17T14:40:14.818Z,30.00
2018-06-17T14:42:49.881Z,29.93
2018-06-17T14:45:24.805Z,29.86
2018-06-17T14:47:59.308Z,29.72
2018-06-17T14:50:35.437Z,29.83
2018-06-17T14:53:07.149Z,29.64
2018-06-17T14:55:36.795Z,29.67
2018-06-17T14:58:06.482Z,29.83
2018-06-17T15:00:36.262Z,30.22
2018-06-17T15:03:05.918Z,30.20
2018-06-17T15:05:35.597Z,30.15
2018-06-17T15:08:05.265Z,30.14
2018-06-17T15:10:35.024Z,29.99
2018-06-17T15:13:04.783Z,29.90
2018-06-17T15:15:34.441Z,29.77
2018-06-17T15:18:04.834Z,29.64
2018-06-17T15:20:35.207Z,29.56
2018-06-17T15:23:05.512Z,29.68
2018-06-17T15:25:35.157Z,29.59
2018-06-17T15:28:04.830Z,29.24
2018-06-17T15:30:34.669Z,29.27
2018-06-17T15:33:09.667Z,29.53
2018-06-17T15:35:44.505Z,29.53
2018-06-17T15:38:19.260Z,29.36
2018-06-17T15:40:54.154Z,29.35
2018-06-17T15:43:23.736Z,29.36
2018-06-17T15:45:53.430Z,29.39
2018-06-17T15:48:23.055Z,29.39
2018-06-17T15:50:52.952Z,29.25
2018-06-17T15:53:22.564Z,29.30
2018-06-17T15:55:52.228Z,29.64
2018-06-17T15:58:23.052Z,29.73
2018-06-17T16:00:52.704Z,29.89
2018-06-17T16:03:22.316Z,29.94
2018-06-17T16:05:52.010Z,29.72
2018-06-17T16:08:22.337Z,29.53
2018-06-17T16:10:52.695Z,29.49
2018-06-17T16:13:27.681Z,29.51
2018-06-17T16:16:02.450Z,29.84
2018-06-17T16:20:40.856Z,30.36
2018-06-17T16:23:10.759Z,29.73
2018-06-17T16:25:40.421Z,29.83
2018-06-17T16:28:10.117Z,29.68
2018-06-17T16:30:39.796Z,29.65
2018-06-17T16:33:10.185Z,29.52
2018-06-17T16:35:39.933Z,29.57
2018-06-17T16:38:11.073Z,29.63
2018-06-17T16:40:40.625Z,29.48
2018-06-17T16:43:11.445Z,29.33
2018-06-17T16:45:41.184Z,29.39
2018-06-17T16:48:10.846Z,29.43
2018-06-17T16:50:42.849Z,29.44
2018-06-17T16:53:17.559Z,29.37
2018-06-17T16:55:52.592Z,29.27
2018-06-17T16:58:27.649Z,29.17
2018-06-17T17:00:57.308Z,29.16
2018-06-17T17:03:27.045Z,29.23
2018-06-17T17:05:56.759Z,29.22
2018-06-17T17:11:02.363Z,29.26
2018-06-17T17:13:32.080Z,29.44
2018-06-17T17:16:08.837Z,29.42
2018-06-17T17:18:38.407Z,29.36
2018-06-17T17:21:08.020Z,29.20
2018-06-17T17:23:37.729Z,29.18
2018-06-17T17:26:07.348Z,29.22
2018-06-17T17:28:37.122Z,29.19
2018-06-17T17:31:06.535Z,29.18
2018-06-17T17:36:21.685Z,28.97
2018-06-17T17:38:56.857Z,28.95
2018-06-17T17:41:27.957Z,28.86
2018-06-17T17:43:58.251Z,28.85
2018-06-17T17:47:35.227Z,28.85
2018-06-17T17:50:04.873Z,28.26
2018-06-17T17:52:34.494Z,28.34
2018-06-17T17:55:04.242Z,28.46
2018-06-17T17:57:34.664Z,28.55
2018-06-17T18:00:04.527Z,28.68
2018-06-17T18:02:34.203Z,28.64
2018-06-17T18:05:03.853Z,28.50
2018-06-17T18:07:34.009Z,28.47
2018-06-17T18:10:03.699Z,28.38
2018-06-17T18:15:09.916Z,28.14
2018-06-17T18:17:39.776Z,28.06
2018-06-17T18:20:09.542Z,27.91
2018-06-17T18:22:40.041Z,27.84
2018-06-17T18:25:16.072Z,27.60
2018-06-17T18:27:51.025Z,27.48
2018-06-17T18:30:26.211Z,27.45
2018-06-17T18:35:03.845Z,27.41
2018-06-17T18:37:33.623Z,26.91
2018-06-17T18:40:03.354Z,26.95
2018-06-17T18:42:33.415Z,27.03
2018-06-17T18:45:03.117Z,27.18
2018-06-17T18:47:33.104Z,27.13
2018-06-17T18:50:03.108Z,26.89
2018-06-17T18:52:33.019Z,26.87
2018-06-17T18:55:02.595Z,26.87
2018-06-17T18:57:32.344Z,26.57
2018-06-17T19:00:02.058Z,26.55
2018-06-17T19:02:31.772Z,26.64
2018-06-17T19:05:01.556Z,26.61
2018-06-17T19:07:31.205Z,26.70
2018-06-17T19:10:06.112Z,26.69
2018-06-17T19:12:41.087Z,26.55
2018-06-17T19:15:16.061Z,26.54
2018-06-17T19:17:51.119Z,26.51
2018-06-17T19:20:20.787Z,26.38
2018-06-17T19:22:50.475Z,26.32
2018-06-17T19:25:20.193Z,26.38
2018-06-17T19:27:49.815Z,26.24
2018-06-17T19:30:19.553Z,26.07
2018-06-17T19:32:53.264Z,25.55
2018-06-17T19:35:23.012Z,25.13
2018-06-17T19:37:52.755Z,25.24
2018-06-17T19:40:22.410Z,24.66
2018-06-17T19:42:52.034Z,24.75
2018-06-17T19:45:22.909Z,25.31
2018-06-17T19:47:53.216Z,25.75
2018-06-17T19:50:28.144Z,26.34
2018-06-17T19:53:03.251Z,26.11
2018-06-17T19:55:38.174Z,25.97
2018-06-17T19:58:14.098Z,25.75
2018-06-17T20:00:46.123Z,25.68
2018-06-17T20:03:15.746Z,25.56
2018-06-17T20:05:45.414Z,25.64
2018-06-17T20:08:15.077Z,25.79
2018-06-17T20:10:44.749Z,25.67
2018-06-17T20:13:15.325Z,25.94
2018-06-17T20:15:45.045Z,25.99
2018-06-17T20:18:15.238Z,26.27
2018-06-17T20:20:44.649Z,26.07
2018-06-17T20:23:14.630Z,25.58
2018-06-17T20:25:44.504Z,25.15
2018-06-17T20:28:13.974Z,24.94
2018-06-17T20:30:43.677Z,24.54
2018-06-17T20:33:18.812Z,24.27
2018-06-17T20:35:53.492Z,24.01
2018-06-17T20:40:29.836Z,24.15
2018-06-17T20:43:04.616Z,23.67
2018-06-17T20:45:34.646Z,23.94
2018-06-17T20:48:04.312Z,24.04
2018-06-17T20:50:34.083Z,24.05
2018-06-17T20:53:03.813Z,24.06
2018-06-17T20:55:33.588Z,24.03
2018-06-17T20:58:03.329Z,24.04
2018-06-17T21:03:08.694Z,24.12
2018-06-17T21:05:38.144Z,23.96
2018-06-17T21:08:09.805Z,23.73
2018-06-17T21:10:39.477Z,23.35
2018-06-17T21:15:44.649Z,22.68
2018-06-17T21:20:48.560Z,23.10
2018-06-17T21:23:23.568Z,23.03
2018-06-17T21:25:58.695Z,23.17
2018-06-17T21:28:28.799Z,23.01
2018-06-17T21:30:58.548Z,22.88
2018-06-17T21:33:28.292Z,22.97
2018-06-17T21:35:58.423Z,23.03
2018-06-17T21:38:28.187Z,22.96
2018-06-17T21:40:57.852Z,22.89
2018-06-17T21:43:27.481Z,23.11
2018-06-17T21:45:57.247Z,23.12
2018-06-17T21:48:27.009Z,23.22
2018-06-17T21:50:56.660Z,23.17
2018-06-17T21:53:26.391Z,22.97
2018-06-17T21:55:56.077Z,22.81
2018-06-17T21:58:31.095Z,22.78
2018-06-17T22:01:01.834Z,22.53
2018-06-17T22:03:33.142Z,22.65
2018-06-17T22:06:02.750Z,22.48
2018-06-17T22:08:37.706Z,22.45
2018-06-17T22:11:12.649Z,22.25
2018-06-17T22:13:47.269Z,22.07
2018-06-17T22:16:21.976Z,22.17
2018-06-17T22:18:51.659Z,22.19
2018-06-17T22:21:21.287Z,22.24
2018-06-17T22:23:50.944Z,22.29
2018-06-17T22:26:20.646Z,22.17
2018-06-17T22:28:50.095Z,22.08
2018-06-17T22:31:19.655Z,22.13
2018-06-17T22:33:48.998Z,21.99
2018-06-17T22:36:18.530Z,21.96
2018-06-17T22:38:48.176Z,21.81
2018-06-17T22:41:17.503Z,21.78
2018-06-17T22:43:47.166Z,21.83
2018-06-17T22:46:16.839Z,21.76
2018-06-17T22:48:46.954Z,21.46
2018-06-17T22:51:16.579Z,21.53
2018-06-17T22:53:57.540Z,21.74
2018-06-17T22:59:13.432Z,21.54
2018-06-17T23:01:48.135Z,21.44
2018-06-17T23:04:23.965Z,21.23
2018-06-17T23:06:58.649Z,21.41
2018-06-17T23:09:32.846Z,21.55
2018-06-17T23:12:02.373Z,21.33
2018-06-17T23:14:37.708Z,21.64
2018-06-17T23:17:07.481Z,21.83
2018-06-17T23:19:37.188Z,21.91
2018-06-17T23:22:07.257Z,22.09
2018-06-17T23:24:37.336Z,22.16
2018-06-17T23:27:11.424Z,22.18
2018-06-17T23:29:41.539Z,22.08
2018-06-17T23:32:11.212Z,22.32
2018-06-17T23:34:40.876Z,22.46
2018-06-17T23:37:11.285Z,22.75
2018-06-17T23:39:40.891Z,22.71
2018-06-17T23:42:10.710Z,22.69
2018-06-17T23:44:40.409Z,22.89
2018-06-17T23:47:15.834Z,22.82
2018-06-17T23:49:50.737Z,22.86
2018-06-17T23:52:25.419Z,23.03
2018-06-17T23:57:35.722Z,23.33
